createdAt,value
2017-08-24T00:00:13.077Z,0
2017-08-24T00:01:25.678Z,0
2017-08-24T00:02:38.298Z,0
2017-08-24T00:03:50.008Z,0
2017-08-24T00:05:02.287Z,0
2017-08-24T00:06:14.512Z,0
2017-08-24T00:07:26.793Z,0
2017-08-24T00:08:39.398Z,0
2017-08-24T00:09:51.916Z,0
2017-08-24T00:11:04.438Z,0
2017-08-24T00:12:16.700Z,0
2017-08-24T00:13:29.255Z,0
2017-08-24T00:14:41.849Z,0
2017-08-24T00:15:54.119Z,0
2017-08-24T00:17:06.418Z,0
2017-08-24T00:18:18.990Z,0
2017-08-24T00:19:31.591Z,0
2017-08-24T00:20:43.878Z,0
2017-08-24T00:21:55.877Z,0
2017-08-24T00:23:08.496Z,0
2017-08-24T00:24:21.106Z,0
2017-08-24T00:25:33.347Z,0
2017-08-24T00:26:45.982Z,0
2017-08-24T00:27:58.526Z,0
2017-08-24T00:29:10.782Z,0
2017-08-24T00:30:23.068Z,0
2017-08-24T00:31:35.365Z,0
2017-08-24T00:32:47.915Z,0
2017-08-24T00:34:00.184Z,0
2017-08-24T00:35:11.826Z,0
2017-08-24T00:36:24.088Z,0
2017-08-24T00:37:36.747Z,0
2017-08-24T00:38:49.365Z,0
2017-08-24T00:40:01.600Z,0
2017-08-24T00:41:13.878Z,0
2017-08-24T00:42:26.506Z,0
2017-08-24T00:43:39.099Z,0
2017-08-24T00:44:51.320Z,0
2017-08-24T00:46:03.603Z,0
2017-08-24T00:47:15.837Z,0
2017-08-24T00:48:27.531Z,0
2017-08-24T00:49:40.122Z,0
2017-08-24T00:50:52.446Z,0
2017-08-24T00:52:04.690Z,0
2017-08-24T00:53:17.313Z,0
2017-08-24T00:54:29.959Z,0
2017-08-24T00:55:41.907Z,0
2017-08-24T00:56:54.206Z,0
2017-08-24T00:58:06.516Z,0
2017-08-24T00:59:18.741Z,0
2017-08-24T01:00:31.358Z,0
2017-08-24T01:01:43.672Z,0
2017-08-24T01:02:56.224Z,0
2017-08-24T01:04:08.171Z,0
2017-08-24T01:05:20.693Z,0
2017-08-24T01:06:32.936Z,0
2017-08-24T01:07:45.582Z,0
2017-08-24T01:08:58.215Z,0
2017-08-24T01:10:10.506Z,0
2017-08-24T01:11:22.551Z,0
2017-08-24T01:12:34.826Z,0
2017-08-24T01:13:46.841Z,0
2017-08-24T01:14:59.468Z,0
2017-08-24T01:16:11.503Z,0
2017-08-24T01:17:24.134Z,0
2017-08-24T01:18:36.443Z,0
2017-08-24T01:19:49.056Z,0
2017-08-24T01:21:01.338Z,0
2017-08-24T01:22:13.941Z,0
2017-08-24T01:23:25.917Z,0
2017-08-24T01:24:38.538Z,0
2017-08-24T01:25:50.793Z,0
2017-08-24T01:27:03.389Z,0
2017-08-24T01:28:15.323Z,0
2017-08-24T01:29:27.946Z,0
2017-08-24T01:30:40.550Z,0
2017-08-24T01:31:53.113Z,0
2017-08-24T01:33:05.654Z,0
2017-08-24T01:34:18.318Z,0
2017-08-24T01:35:30.870Z,0
2017-08-24T01:36:42.845Z,0
2017-08-24T01:37:54.827Z,0
2017-08-24T01:39:07.096Z,0
2017-08-24T01:40:19.647Z,0
2017-08-24T01:41:32.212Z,0
2017-08-24T01:42:44.742Z,0
2017-08-24T01:43:56.991Z,0
2017-08-24T01:45:09.301Z,0
2017-08-24T01:46:21.925Z,0
2017-08-24T01:47:34.780Z,0
2017-08-24T01:48:47.110Z,0
2017-08-24T01:49:59.422Z,0
2017-08-24T01:51:11.953Z,0
2017-08-24T01:52:24.527Z,0
2017-08-24T01:53:37.097Z,0
2017-08-24T01:54:49.436Z,0
2017-08-24T01:56:01.760Z,0
2017-08-24T01:57:14.340Z,0
2017-08-24T01:58:26.925Z,0
2017-08-24T01:59:39.202Z,0
2017-08-24T02:00:51.742Z,0
2017-08-24T02:02:04.043Z,0
2017-08-24T02:03:16.008Z,0
2017-08-24T02:04:28.284Z,0
2017-08-24T02:05:40.909Z,0
2017-08-24T02:06:53.502Z,0
2017-08-24T02:08:05.493Z,0
2017-08-24T02:09:17.736Z,0
2017-08-24T02:10:30.349Z,0
2017-08-24T02:11:42.951Z,0
2017-08-24T02:12:55.178Z,0
2017-08-24T02:14:07.721Z,0
2017-08-24T02:15:20.044Z,0
2017-08-24T02:16:32.677Z,0
2017-08-24T02:17:45.281Z,0
2017-08-24T02:18:56.935Z,0
2017-08-24T02:20:08.900Z,0
2017-08-24T02:21:21.492Z,0
2017-08-24T02:22:34.058Z,0
2017-08-24T02:23:46.598Z,0
2017-08-24T02:24:59.136Z,0
2017-08-24T02:26:11.453Z,0
2017-08-24T02:27:24.047Z,0
2017-08-24T02:28:36.299Z,0
2017-08-24T02:29:48.869Z,0
2017-08-24T02:31:01.131Z,0
2017-08-24T02:32:13.439Z,0
2017-08-24T02:33:26.091Z,0
2017-08-24T02:34:38.711Z,0
2017-08-24T02:35:50.626Z,0
2017-08-24T02:37:03.163Z,0
2017-08-24T02:38:15.148Z,0
2017-08-24T02:39:27.454Z,0
2017-08-24T02:40:40.021Z,0
2017-08-24T02:41:51.969Z,0
2017-08-24T02:43:04.563Z,0
2017-08-24T02:44:17.087Z,0
2017-08-24T02:45:29.097Z,0
2017-08-24T02:46:41.682Z,0
2017-08-24T02:47:53.996Z,0
2017-08-24T02:49:06.319Z,0
2017-08-24T02:50:18.891Z,0
2017-08-24T02:51:31.489Z,0
2017-08-24T02:52:44.357Z,0
2017-08-24T02:53:56.930Z,0
2017-08-24T02:55:09.333Z,0
2017-08-24T02:56:21.658Z,0
2017-08-24T02:57:33.937Z,0
2017-08-24T02:58:45.888Z,0
2017-08-24T02:59:57.910Z,0
2017-08-24T03:01:10.561Z,0
2017-08-24T03:02:23.187Z,0
2017-08-24T03:03:35.475Z,0
2017-08-24T03:04:47.432Z,0
2017-08-24T03:05:59.683Z,0
2017-08-24T03:07:11.927Z,0
2017-08-24T03:08:24.548Z,0
2017-08-24T03:09:37.166Z,0
2017-08-24T03:10:49.395Z,0
2017-08-24T03:12:01.973Z,0
2017-08-24T03:13:14.604Z,0
2017-08-24T03:14:26.573Z,0
2017-08-24T03:15:39.200Z,0
2017-08-24T03:16:51.752Z,0
2017-08-24T03:18:03.474Z,0
2017-08-24T03:19:16.071Z,0
2017-08-24T03:20:28.705Z,0
2017-08-24T03:21:41.263Z,0
2017-08-24T03:22:53.827Z,0
2017-08-24T03:24:06.443Z,0
2017-08-24T03:25:19.311Z,0
2017-08-24T03:26:31.933Z,0
2017-08-24T03:27:44.163Z,0
2017-08-24T03:28:56.465Z,0
2017-08-24T03:30:08.770Z,0
2017-08-24T03:31:21.026Z,0
2017-08-24T03:32:33.617Z,0
2017-08-24T03:33:45.910Z,0
2017-08-24T03:34:58.162Z,0
2017-08-24T03:36:10.153Z,0
2017-08-24T03:37:22.759Z,0
2017-08-24T03:38:35.414Z,0
2017-08-24T03:39:48.038Z,0
2017-08-24T03:41:00.591Z,0
2017-08-24T03:42:12.581Z,0
2017-08-24T03:43:24.934Z,0
2017-08-24T03:44:37.273Z,0
2017-08-24T03:45:49.563Z,0
2017-08-24T03:47:01.783Z,0
2017-08-24T03:48:14.429Z,0
2017-08-24T03:49:26.442Z,0
2017-08-24T03:50:38.737Z,0
2017-08-24T03:51:51.326Z,0
2017-08-24T03:53:03.621Z,0
2017-08-24T03:54:16.210Z,0
2017-08-24T03:55:28.191Z,0
2017-08-24T03:56:40.823Z,0
2017-08-24T03:57:53.379Z,0
2017-08-24T03:59:05.971Z,0
2017-08-24T04:00:18.212Z,5
2017-08-24T04:01:30.505Z,5
2017-08-24T04:02:42.200Z,5
2017-08-24T04:03:54.228Z,5
2017-08-24T04:05:06.841Z,5
2017-08-24T04:06:19.180Z,5
2017-08-24T04:07:31.426Z,5
2017-08-24T04:08:44.004Z,5
2017-08-24T04:09:56.549Z,10
2017-08-24T04:11:09.094Z,10
2017-08-24T04:12:21.702Z,10
2017-08-24T04:13:34.337Z,10
2017-08-24T04:14:46.933Z,15
2017-08-24T04:15:59.479Z,15
2017-08-24T04:17:11.747Z,15
2017-08-24T04:18:23.762Z,15
2017-08-24T04:19:36.340Z,20
2017-08-24T04:20:48.627Z,20
2017-08-24T04:22:01.232Z,20
2017-08-24T04:23:13.214Z,25
2017-08-24T04:24:25.749Z,25
2017-08-24T04:25:38.254Z,25
2017-08-24T04:26:50.241Z,30
2017-08-24T04:28:02.510Z,30
2017-08-24T04:29:15.066Z,30
2017-08-24T04:30:27.655Z,35
2017-08-24T04:31:40.259Z,35
2017-08-24T04:32:52.858Z,35
2017-08-24T04:34:04.813Z,40
2017-08-24T04:35:17.686Z,40
2017-08-24T04:36:29.993Z,40
2017-08-24T04:37:41.980Z,45
2017-08-24T04:38:53.962Z,45
2017-08-24T04:40:06.515Z,50
2017-08-24T04:41:19.140Z,50
2017-08-24T04:42:31.708Z,50
2017-08-24T04:43:44.020Z,55
2017-08-24T04:44:56.273Z,55
2017-08-24T04:46:08.586Z,60
2017-08-24T04:47:21.125Z,60
2017-08-24T04:48:33.728Z,60
2017-08-24T04:49:46.334Z,65
2017-08-24T04:50:58.611Z,65
2017-08-24T04:52:10.847Z,70
2017-08-24T04:53:23.077Z,70
2017-08-24T04:54:35.433Z,70
2017-08-24T04:55:48.061Z,75
2017-08-24T04:57:00.086Z,75
2017-08-24T04:58:12.688Z,80
2017-08-24T04:59:25.258Z,80
2017-08-24T05:00:37.841Z,80
2017-08-24T05:01:49.763Z,85
2017-08-24T05:03:02.295Z,85
2017-08-24T05:04:14.965Z,90
2017-08-24T05:05:26.917Z,90
2017-08-24T05:06:39.201Z,90
2017-08-24T05:07:51.451Z,95
2017-08-24T05:09:04.086Z,95
2017-08-24T05:10:16.638Z,100
2017-08-24T05:11:29.248Z,100
2017-08-24T05:12:41.501Z,100
2017-08-24T05:13:54.122Z,105
2017-08-24T05:15:06.740Z,110
2017-08-24T05:16:19.019Z,110
2017-08-24T05:17:30.966Z,115
2017-08-24T05:18:43.283Z,120
2017-08-24T05:19:55.565Z,130
2017-08-24T05:21:08.168Z,130
2017-08-24T05:22:20.730Z,140
2017-08-24T05:23:33.270Z,150
2017-08-24T05:24:46.116Z,155
2017-08-24T05:25:58.442Z,160
2017-08-24T05:27:10.683Z,165
2017-08-24T05:28:22.939Z,170
2017-08-24T05:29:35.548Z,165
2017-08-24T05:30:48.133Z,165
2017-08-24T05:32:00.775Z,160
2017-08-24T05:33:13.055Z,165
2017-08-24T05:34:25.704Z,165
2017-08-24T05:35:38.266Z,165
2017-08-24T05:36:50.491Z,170
2017-08-24T05:38:03.134Z,170
2017-08-24T05:39:15.404Z,170
2017-08-24T05:40:27.951Z,170
2017-08-24T05:41:40.572Z,170
2017-08-24T05:42:52.592Z,170
2017-08-24T05:44:05.186Z,165
2017-08-24T05:45:17.434Z,165
2017-08-24T05:46:29.950Z,160
2017-08-24T05:47:42.547Z,160
2017-08-24T05:48:55.135Z,170
2017-08-24T05:50:07.437Z,175
2017-08-24T05:51:20.026Z,190
2017-08-24T05:52:32.656Z,200
2017-08-24T05:53:45.235Z,210
2017-08-24T05:54:57.526Z,225
2017-08-24T05:56:09.477Z,240
2017-08-24T05:57:22.062Z,255
2017-08-24T05:58:34.693Z,265
2017-08-24T05:59:47.254Z,275
2017-08-24T06:00:59.832Z,290
2017-08-24T06:02:11.799Z,300
2017-08-24T06:03:24.373Z,310
2017-08-24T06:04:36.627Z,315
2017-08-24T06:05:49.273Z,325
2017-08-24T06:07:01.918Z,340
2017-08-24T06:08:14.180Z,350
2017-08-24T06:09:26.809Z,360
2017-08-24T06:10:38.763Z,370
2017-08-24T06:11:50.710Z,370
2017-08-24T06:13:03.004Z,365
2017-08-24T06:14:15.583Z,370
2017-08-24T06:15:27.872Z,360
2017-08-24T06:16:40.433Z,350
2017-08-24T06:17:52.987Z,350
2017-08-24T06:19:05.623Z,345
2017-08-24T06:20:18.255Z,345
2017-08-24T06:21:30.891Z,345
2017-08-24T06:22:43.458Z,345
2017-08-24T06:23:56.066Z,345
2017-08-24T06:25:08.404Z,355
2017-08-24T06:26:20.387Z,370
2017-08-24T06:27:33.006Z,380
2017-08-24T06:28:45.005Z,380
2017-08-24T06:29:57.350Z,390
2017-08-24T06:31:09.888Z,390
2017-08-24T06:32:22.183Z,395
2017-08-24T06:33:34.467Z,405
2017-08-24T06:34:47.033Z,405
2017-08-24T06:35:58.750Z,415
2017-08-24T06:37:11.017Z,425
2017-08-24T06:38:23.331Z,440
2017-08-24T06:39:35.909Z,445
2017-08-24T06:40:48.761Z,450
2017-08-24T06:42:01.408Z,445
2017-08-24T06:43:14.025Z,450
2017-08-24T06:44:26.620Z,450
2017-08-24T06:45:39.225Z,445
2017-08-24T06:46:51.539Z,440
2017-08-24T06:48:04.141Z,430
2017-08-24T06:49:16.424Z,420
2017-08-24T06:50:28.998Z,410
2017-08-24T06:51:40.980Z,400
2017-08-24T06:52:53.309Z,395
2017-08-24T06:54:05.616Z,395
2017-08-24T06:55:17.902Z,400
2017-08-24T06:56:30.149Z,380
2017-08-24T06:57:41.821Z,365
2017-08-24T06:58:54.489Z,345
2017-08-24T07:00:06.441Z,340
2017-08-24T07:01:18.730Z,340
2017-08-24T07:02:31.202Z,340
2017-08-24T07:03:43.731Z,340
2017-08-24T07:04:56.335Z,345
2017-08-24T07:06:08.565Z,355
2017-08-24T07:07:20.785Z,385
2017-08-24T07:08:33.047Z,400
2017-08-24T07:09:45.584Z,400
2017-08-24T07:10:58.186Z,410
2017-08-24T07:12:09.624Z,470
2017-08-24T07:13:22.311Z,795
2017-08-24T07:14:34.859Z,750
2017-08-24T07:15:47.411Z,820
2017-08-24T07:16:59.716Z,805
2017-08-24T07:18:11.980Z,870
2017-08-24T07:19:24.678Z,620
2017-08-24T07:20:37.296Z,510
2017-08-24T07:21:49.540Z,490
2017-08-24T07:23:02.131Z,645
2017-08-24T07:24:14.751Z,665
2017-08-24T07:25:26.780Z,840
2017-08-24T07:26:39.063Z,940
2017-08-24T07:27:51.614Z,1020
2017-08-24T07:29:04.213Z,1085
2017-08-24T07:30:16.527Z,1090
2017-08-24T07:31:28.801Z,1050
2017-08-24T07:32:41.054Z,1050
2017-08-24T07:33:53.662Z,1100
2017-08-24T07:35:05.945Z,1080
2017-08-24T07:36:18.557Z,1125
2017-08-24T07:37:30.831Z,1080
2017-08-24T07:38:43.376Z,1115
2017-08-24T07:39:55.673Z,1135
2017-08-24T07:41:08.279Z,1090
2017-08-24T07:42:20.863Z,1200
2017-08-24T07:43:33.179Z,1180
2017-08-24T07:44:45.505Z,1170
2017-08-24T07:45:57.459Z,1190
2017-08-24T07:47:10.090Z,1240
2017-08-24T07:48:22.339Z,1305
2017-08-24T07:49:34.698Z,1275
2017-08-24T07:50:47.328Z,1305
2017-08-24T07:51:59.628Z,1400
2017-08-24T07:53:12.168Z,1450
2017-08-24T07:54:24.838Z,1500
2017-08-24T07:55:37.440Z,1565
2017-08-24T07:56:49.998Z,1455
2017-08-24T07:58:02.637Z,1380
2017-08-24T07:59:15.233Z,1270
2017-08-24T08:00:27.843Z,1205
2017-08-24T08:01:40.127Z,1145
2017-08-24T08:02:52.434Z,845
2017-08-24T08:04:05.057Z,560
2017-08-24T08:05:17.356Z,545
2017-08-24T08:06:29.694Z,545
2017-08-24T08:07:42.341Z,550
2017-08-24T08:08:54.685Z,560
2017-08-24T08:10:07.296Z,570
2017-08-24T08:11:19.901Z,580
2017-08-24T08:12:31.885Z,585
2017-08-24T08:13:44.552Z,600
2017-08-24T08:14:57.164Z,615
2017-08-24T08:16:09.423Z,630
2017-08-24T08:17:21.718Z,645
2017-08-24T08:18:34.292Z,660
2017-08-24T08:19:46.579Z,670
2017-08-24T08:20:58.867Z,675
2017-08-24T08:22:10.864Z,680
2017-08-24T08:23:23.462Z,670
2017-08-24T08:24:36.054Z,680
2017-08-24T08:25:48.028Z,680
2017-08-24T08:27:00.296Z,685
2017-08-24T08:28:12.306Z,705
2017-08-24T08:29:24.630Z,710
2017-08-24T08:30:36.872Z,720
2017-08-24T08:31:49.512Z,715
2017-08-24T08:33:01.849Z,715
2017-08-24T08:34:13.826Z,715
2017-08-24T08:35:25.889Z,705
2017-08-24T08:36:38.490Z,705
2017-08-24T08:37:51.059Z,695
2017-08-24T08:39:03.327Z,680
2017-08-24T08:40:15.310Z,670
2017-08-24T08:41:27.979Z,665
2017-08-24T08:42:40.656Z,655
2017-08-24T08:43:53.309Z,650
2017-08-24T08:45:05.607Z,635
2017-08-24T08:46:17.531Z,630
2017-08-24T08:47:29.864Z,625
2017-08-24T08:48:41.468Z,630
2017-08-24T08:49:53.741Z,635
2017-08-24T08:51:06.039Z,650
2017-08-24T08:52:18.318Z,660
2017-08-24T08:53:30.982Z,680
2017-08-24T08:54:43.619Z,705
2017-08-24T08:55:56.241Z,740
2017-08-24T08:57:08.567Z,765
2017-08-24T08:58:20.525Z,785
2017-08-24T08:59:32.802Z,805
2017-08-24T09:00:45.102Z,815
2017-08-24T09:01:57.053Z,830
2017-08-24T09:03:09.333Z,845
2017-08-24T09:04:21.602Z,850
2017-08-24T09:05:33.393Z,850
2017-08-24T09:06:45.653Z,860
2017-08-24T09:07:57.908Z,850
2017-08-24T09:09:09.885Z,850
2017-08-24T09:10:22.206Z,840
2017-08-24T09:11:34.240Z,830
2017-08-24T09:12:46.830Z,815
2017-08-24T09:13:59.375Z,800
2017-08-24T09:15:11.307Z,780
2017-08-24T09:16:23.928Z,760
2017-08-24T09:17:36.568Z,745
2017-08-24T09:18:48.809Z,730
2017-08-24T09:20:01.107Z,710
2017-08-24T09:21:13.142Z,700
2017-08-24T09:22:25.727Z,680
2017-08-24T09:23:38.066Z,650
2017-08-24T09:24:50.312Z,635
2017-08-24T09:26:02.313Z,640
2017-08-24T09:27:14.939Z,625
2017-08-24T09:28:27.291Z,590
2017-08-24T09:29:39.569Z,575
2017-08-24T09:30:52.166Z,580
2017-08-24T09:32:04.128Z,585
2017-08-24T09:33:16.406Z,565
2017-08-24T09:34:29.019Z,540
2017-08-24T09:35:41.585Z,530
2017-08-24T09:36:53.549Z,545
2017-08-24T09:38:06.139Z,580
2017-08-24T09:39:18.390Z,600
2017-08-24T09:40:30.729Z,610
2017-08-24T09:41:42.988Z,590
2017-08-24T09:42:54.672Z,525
2017-08-24T09:44:06.995Z,390
2017-08-24T09:45:19.273Z,250
2017-08-24T09:46:31.552Z,175
2017-08-24T09:47:44.093Z,155
2017-08-24T09:48:56.374Z,155
2017-08-24T09:50:08.641Z,150
2017-08-24T09:51:21.242Z,135
2017-08-24T09:52:33.812Z,130
2017-08-24T09:53:45.464Z,130
2017-08-24T09:54:57.760Z,130
2017-08-24T09:56:09.725Z,130
2017-08-24T09:57:21.625Z,135
2017-08-24T09:58:33.840Z,155
2017-08-24T09:59:46.063Z,190
2017-08-24T10:00:58.392Z,235
2017-08-24T10:02:10.702Z,300
2017-08-24T10:03:23.015Z,355
2017-08-24T10:04:35.594Z,395
2017-08-24T10:05:47.820Z,410
2017-08-24T10:07:00.134Z,410
2017-08-24T10:08:12.708Z,395
2017-08-24T10:09:25.319Z,360
2017-08-24T10:10:37.300Z,325
2017-08-24T10:11:49.953Z,320
2017-08-24T10:13:02.587Z,325
2017-08-24T10:14:15.212Z,335
2017-08-24T10:15:27.211Z,330
2017-08-24T10:16:39.749Z,315
2017-08-24T10:17:52.078Z,295
2017-08-24T10:19:04.766Z,280
2017-08-24T10:20:17.305Z,280
2017-08-24T10:21:29.906Z,285
2017-08-24T10:22:42.254Z,295
2017-08-24T10:23:54.564Z,315
2017-08-24T10:25:06.601Z,340
2017-08-24T10:26:19.177Z,375
2017-08-24T10:27:31.517Z,405
2017-08-24T10:28:44.080Z,435
2017-08-24T10:29:57.127Z,460
2017-08-24T10:31:10.521Z,490
2017-08-24T10:32:22.971Z,515
2017-08-24T10:33:35.236Z,520
2017-08-24T10:34:47.490Z,530
2017-08-24T10:35:59.472Z,540
2017-08-24T10:37:12.082Z,540
2017-08-24T10:38:24.688Z,555
2017-08-24T10:39:37.547Z,580
2017-08-24T10:42:16.419Z,655
2017-08-24T10:43:29.238Z,685
2017-08-24T10:45:10.927Z,735
2017-08-24T10:46:23.570Z,760
2017-08-24T10:47:35.220Z,800
2017-08-24T10:48:47.515Z,850
2017-08-24T10:49:59.130Z,905
2017-08-24T10:51:11.474Z,945
2017-08-24T10:52:24.106Z,1070
2017-08-24T10:53:36.740Z,1385
2017-08-24T10:54:49.011Z,1720
2017-08-24T10:56:01.584Z,1945
2017-08-24T10:57:13.828Z,2315
2017-08-24T10:58:26.453Z,2215
2017-08-24T10:59:39.054Z,2135
2017-08-24T11:00:50.740Z,1975
2017-08-24T11:02:03.040Z,1600
2017-08-24T11:03:15.349Z,1410
2017-08-24T11:04:27.652Z,1325
2017-08-24T11:05:39.881Z,1245
2017-08-24T11:06:52.196Z,1180
2017-08-24T11:08:04.488Z,1405
2017-08-24T11:09:16.735Z,1195
2017-08-24T11:10:28.982Z,1155
2017-08-24T11:11:41.274Z,940
2017-08-24T11:12:53.857Z,1130
2017-08-24T11:14:05.824Z,1505
2017-08-24T11:15:17.816Z,1580
2017-08-24T11:16:29.516Z,1680
2017-08-24T11:17:41.836Z,1730
2017-08-24T11:18:54.426Z,1640
2017-08-24T11:20:06.671Z,1640
2017-08-24T11:21:18.702Z,1525
2017-08-24T11:22:31.004Z,1480
2017-08-24T11:23:43.326Z,1510
2017-08-24T11:24:55.839Z,1605
2017-08-24T11:26:08.480Z,1385
2017-08-24T11:27:21.125Z,1860
2017-08-24T11:28:33.432Z,1735
2017-08-24T11:29:45.434Z,1560
2017-08-24T11:30:57.735Z,1470
2017-08-24T11:32:10.053Z,1520
2017-08-24T11:33:22.404Z,1475
2017-08-24T11:34:34.092Z,1525
2017-08-24T11:35:46.106Z,1190
2017-08-24T11:36:58.088Z,835
2017-08-24T11:38:10.060Z,935
2017-08-24T11:39:22.275Z,1780
2017-08-24T11:40:34.546Z,1775
2017-08-24T11:41:47.103Z,1425
2017-08-24T11:42:59.762Z,1145
2017-08-24T11:44:12.200Z,1025
2017-08-24T11:45:24.869Z,900
2017-08-24T11:46:37.279Z,990
2017-08-24T11:47:49.522Z,1715
2017-08-24T11:49:02.159Z,1615
2017-08-24T11:50:14.117Z,1250
2017-08-24T11:51:26.694Z,1055
2017-08-24T11:52:39.309Z,1220
2017-08-24T11:53:51.936Z,1165
2017-08-24T11:55:04.532Z,1200
2017-08-24T11:56:16.491Z,1180
2017-08-24T11:57:28.720Z,1235
2017-08-24T11:58:40.887Z,1490
2017-08-24T11:59:53.103Z,1735
2017-08-24T12:01:05.054Z,1725
2017-08-24T12:02:17.721Z,1755
2017-08-24T12:03:30.356Z,1555
2017-08-24T12:04:42.613Z,1565
2017-08-24T12:05:55.187Z,1925
2017-08-24T12:07:06.802Z,2280
2017-08-24T12:08:19.397Z,2095
2017-08-24T12:09:46.284Z,1695
2017-08-24T12:10:58.819Z,1405
2017-08-24T12:12:10.734Z,1355
2017-08-24T12:13:23.039Z,1555
2017-08-24T12:14:35.275Z,1570
2017-08-24T12:15:47.805Z,1770
2017-08-24T12:17:00.108Z,2070
2017-08-24T12:18:12.710Z,2365
2017-08-24T12:19:25.294Z,2430
2017-08-24T12:20:52.480Z,2705
2017-08-24T12:22:04.764Z,1420
2017-08-24T12:23:16.998Z,2455
2017-08-24T12:24:29.599Z,2665
2017-08-24T12:25:42.239Z,2145
2017-08-24T12:26:54.932Z,2290
2017-08-24T12:28:07.299Z,1765
2017-08-24T12:29:19.913Z,1225
2017-08-24T12:30:31.902Z,1485
2017-08-24T12:31:44.219Z,2075
2017-08-24T12:32:56.885Z,2090
2017-08-24T12:34:08.853Z,1710
2017-08-24T12:35:21.460Z,1810
2017-08-24T12:36:33.771Z,2710
2017-08-24T12:37:46.314Z,2895
2017-08-24T12:38:58.564Z,2860
2017-08-24T12:40:11.149Z,2710
2017-08-24T12:41:23.438Z,2815
2017-08-24T12:42:35.727Z,2265
2017-08-24T12:43:47.985Z,2320
2017-08-24T12:45:00.617Z,1310
2017-08-24T12:46:13.241Z,1345
2017-08-24T12:47:25.506Z,1215
2017-08-24T12:48:37.155Z,1110
2017-08-24T12:49:49.807Z,1095
2017-08-24T12:51:02.421Z,1155
2017-08-24T12:52:14.719Z,1220
2017-08-24T12:53:27.325Z,1165
2017-08-24T12:54:39.639Z,1120
2017-08-24T12:55:51.875Z,1120
2017-08-24T12:57:04.426Z,1120
2017-08-24T12:58:16.718Z,1160
2017-08-24T12:59:29.243Z,1085
2017-08-24T13:00:41.525Z,1080
2017-08-24T13:01:53.531Z,1185
2017-08-24T13:03:05.852Z,1250
2017-08-24T13:04:17.831Z,1175
2017-08-24T13:05:30.092Z,1070
2017-08-24T13:06:42.686Z,1010
2017-08-24T13:07:55.267Z,1070
2017-08-24T13:09:07.753Z,1075
2017-08-24T13:10:20.346Z,1020
2017-08-24T13:11:32.996Z,895
2017-08-24T13:12:45.264Z,980
2017-08-24T13:13:57.510Z,1095
2017-08-24T13:15:09.759Z,1145
2017-08-24T13:16:22.351Z,1115
2017-08-24T13:17:34.896Z,990
2017-08-24T13:18:47.471Z,855
2017-08-24T13:19:59.738Z,880
2017-08-24T13:21:11.707Z,1005
2017-08-24T13:22:24.328Z,980
2017-08-24T13:23:36.306Z,805
2017-08-24T13:24:48.556Z,705
2017-08-24T13:26:01.198Z,670
2017-08-24T13:27:13.843Z,700
2017-08-24T13:28:26.088Z,765
2017-08-24T13:29:38.053Z,785
2017-08-24T13:30:50.625Z,665
2017-08-24T13:32:03.002Z,515
2017-08-24T13:33:15.314Z,420
2017-08-24T13:34:27.571Z,385
2017-08-24T13:35:39.855Z,355
2017-08-24T13:36:52.089Z,330
2017-08-24T13:38:04.372Z,315
2017-08-24T13:39:16.325Z,335
2017-08-24T13:40:28.981Z,355
2017-08-24T13:41:41.308Z,340
2017-08-24T13:42:53.592Z,330
2017-08-24T13:44:06.213Z,335
2017-08-24T13:45:18.182Z,325
2017-08-24T13:46:31.005Z,320
2017-08-24T13:47:43.268Z,330
2017-08-24T13:48:55.200Z,335
2017-08-24T13:50:07.529Z,315
2017-08-24T13:51:20.128Z,300
2017-08-24T13:52:32.750Z,310
2017-08-24T13:53:45.058Z,300
2017-08-24T13:54:57.692Z,285
2017-08-24T13:56:09.732Z,305
2017-08-24T13:57:21.970Z,365
2017-08-24T13:58:33.954Z,430
2017-08-24T13:59:46.572Z,505
2017-08-24T14:00:59.252Z,620
2017-08-24T14:02:11.559Z,765
2017-08-24T14:03:24.209Z,760
2017-08-24T14:04:36.502Z,780
2017-08-24T14:05:48.796Z,945
2017-08-24T14:07:00.778Z,755
2017-08-24T14:08:13.118Z,570
2017-08-24T14:09:25.762Z,495
2017-08-24T14:10:38.411Z,375
2017-08-24T14:11:50.992Z,335
2017-08-24T14:13:03.552Z,385
2017-08-24T14:14:15.546Z,390
2017-08-24T14:15:28.148Z,385
2017-08-24T14:16:40.449Z,365
2017-08-24T14:17:52.428Z,325
2017-08-24T14:19:04.704Z,325
2017-08-24T14:20:16.958Z,400
2017-08-24T14:21:28.946Z,420
2017-08-24T14:22:41.461Z,500
2017-08-24T14:23:53.664Z,675
2017-08-24T14:25:06.026Z,845
2017-08-24T14:26:18.626Z,680
2017-08-24T14:27:31.198Z,500
2017-08-24T14:28:43.172Z,450
2017-08-24T14:29:55.746Z,450
2017-08-24T14:31:08.062Z,465
2017-08-24T14:32:20.655Z,600
2017-08-24T14:33:33.221Z,705
2017-08-24T14:34:45.873Z,780
2017-08-24T14:35:58.169Z,840
2017-08-24T14:37:10.832Z,855
2017-08-24T14:38:23.421Z,770
2017-08-24T14:39:35.750Z,655
2017-08-24T14:40:48.073Z,630
2017-08-24T14:42:00.042Z,610
2017-08-24T14:43:11.963Z,570
2017-08-24T14:44:24.260Z,530
2017-08-24T14:45:36.939Z,515
2017-08-24T14:46:49.523Z,450
2017-08-24T14:48:01.795Z,350
2017-08-24T14:49:13.745Z,285
2017-08-24T14:50:26.369Z,250
2017-08-24T14:51:38.965Z,250
2017-08-24T14:52:51.755Z,265
2017-08-24T14:54:03.411Z,290
2017-08-24T14:55:15.994Z,330
2017-08-24T14:56:28.213Z,410
2017-08-24T14:57:40.469Z,505
2017-08-24T14:58:52.730Z,595
2017-08-24T15:00:04.976Z,595
2017-08-24T15:01:17.286Z,525
2017-08-24T15:02:29.298Z,430
2017-08-24T15:03:41.294Z,380
2017-08-24T15:04:53.509Z,370
2017-08-24T15:06:06.134Z,375
2017-08-24T15:07:18.407Z,375
2017-08-24T15:08:31.049Z,375
2017-08-24T15:09:43.331Z,385
2017-08-24T15:10:55.947Z,420
2017-08-24T15:12:08.534Z,450
2017-08-24T15:13:20.814Z,445
2017-08-24T15:14:33.427Z,450
2017-08-24T15:15:45.708Z,475
2017-08-24T15:16:58.321Z,490
2017-08-24T15:18:10.319Z,510
2017-08-24T15:19:22.660Z,520
2017-08-24T15:20:35.227Z,510
2017-08-24T15:21:47.527Z,465
2017-08-24T15:23:00.146Z,450
2017-08-24T15:24:12.477Z,455
2017-08-24T15:25:24.752Z,530
2017-08-24T15:26:37.378Z,555
2017-08-24T15:27:49.348Z,520
2017-08-24T15:29:01.269Z,480
2017-08-24T15:30:13.893Z,445
2017-08-24T15:31:26.466Z,420
2017-08-24T15:32:38.725Z,420
2017-08-24T15:33:51.031Z,400
2017-08-24T15:35:03.329Z,390
2017-08-24T15:36:15.927Z,365
2017-08-24T15:37:28.546Z,370
2017-08-24T15:38:40.518Z,380
2017-08-24T15:39:52.884Z,360
2017-08-24T15:41:05.485Z,360
2017-08-24T15:42:18.090Z,345
2017-08-24T15:43:30.661Z,335
2017-08-24T15:44:42.590Z,330
2017-08-24T15:45:54.866Z,330
2017-08-24T15:47:06.842Z,315
2017-08-24T15:48:19.138Z,305
2017-08-24T15:49:31.708Z,305
2017-08-24T15:50:44.323Z,295
2017-08-24T15:51:56.980Z,285
2017-08-24T15:53:09.216Z,280
2017-08-24T15:54:21.834Z,280
2017-08-24T15:55:33.800Z,275
2017-08-24T15:56:46.444Z,285
2017-08-24T15:57:58.445Z,270
2017-08-24T15:59:10.394Z,265
2017-08-24T16:00:22.683Z,260
2017-08-24T16:01:34.979Z,255
2017-08-24T16:02:47.335Z,255
2017-08-24T16:03:59.648Z,250
2017-08-24T16:05:11.997Z,250
2017-08-24T16:06:24.261Z,250
2017-08-24T16:07:36.539Z,250
2017-08-24T16:08:49.177Z,245
2017-08-24T16:10:01.798Z,245
2017-08-24T16:11:14.370Z,240
2017-08-24T16:12:26.752Z,240
2017-08-24T16:13:39.096Z,240
2017-08-24T16:14:51.333Z,235
2017-08-24T16:16:03.889Z,225
2017-08-24T16:17:16.164Z,230
2017-08-24T16:18:28.815Z,225
2017-08-24T16:19:40.749Z,220
2017-08-24T16:20:52.964Z,220
2017-08-24T16:22:05.204Z,220
2017-08-24T16:23:17.137Z,215
2017-08-24T16:24:29.736Z,215
2017-08-24T16:25:41.449Z,210
2017-08-24T16:26:53.740Z,210
2017-08-24T16:28:05.695Z,205
2017-08-24T16:29:18.016Z,200
2017-08-24T16:30:30.297Z,200
2017-08-24T16:31:42.298Z,195
2017-08-24T16:32:54.894Z,190
2017-08-24T16:34:07.512Z,185
2017-08-24T16:35:19.539Z,180
2017-08-24T16:36:32.221Z,180
2017-08-24T16:37:44.453Z,175
2017-08-24T16:38:57.090Z,165
2017-08-24T16:40:09.700Z,155
2017-08-24T16:41:21.728Z,145
2017-08-24T16:42:34.323Z,150
2017-08-24T16:43:46.577Z,145
2017-08-24T16:44:58.883Z,140
2017-08-24T16:46:11.445Z,135
2017-08-24T16:47:23.699Z,130
2017-08-24T16:48:36.309Z,120
2017-08-24T16:49:48.587Z,115
2017-08-24T16:51:01.200Z,120
2017-08-24T16:52:13.478Z,125